Time;durP1;ratioP1;P1;durP2;ratioP2;P2;SDS_P1;SDS_P2;PMS_P1;PMS_P2;Temp;Humidity;BMP_temperature;BMP_pressure;BME280_temperature;BME280_humidity;BME280_pressure;Samples;Min_cycle;Max_cycle;Signal;HPM_P1;HPM_P2
2020/12/14 00:00:16;;;;;;;131.35;44.60;;;;;;;3.85;100.00;100791.19;4961213;28;20047;-57
2020/12/14 00:02:43;;;;;;;146.60;45.80;;;;;;;3.70;100.00;100786.19;4962045;28;20074;-51
2020/12/14 00:05:11;;;;;;;131.20;44.78;;;;;;;3.76;100.00;100791.56;4961300;28;20050;-53
2020/12/14 00:07:37;;;;;;;134.45;44.90;;;;;;;3.88;100.00;100789.69;4961439;28;20505;-55
2020/12/14 00:10:05;;;;;;;124.88;43.38;;;;;;;4.00;100.00;100792.00;4961985;28;20050;-54
2020/12/14 00:12:31;;;;;;;123.57;43.42;;;;;;;3.93;100.00;100802.59;4960301;28;20062;-56
2020/12/14 00:14:58;;;;;;;115.60;43.67;;;;;;;4.31;100.00;100795.38;4962232;28;20433;-55
2020/12/14 00:17:24;;;;;;;121.78;41.55;;;;;;;4.43;100.00;100791.72;4959725;28;20059;-54
2020/12/14 00:19:51;;;;;;;123.60;40.97;;;;;;;3.89;100.00;100793.97;4962125;28;20058;-53
2020/12/14 00:22:17;;;;;;;128.30;42.85;;;;;;;3.91;100.00;100797.44;4959620;28;20082;-56
2020/12/14 00:24:44;;;;;;;123.35;42.30;;;;;;;3.71;100.00;100795.50;4952500;28;20079;-56
2020/12/14 00:27:10;;;;;;;157.50;46.45;;;;;;;3.57;100.00;100794.75;4953294;28;20043;-56
2020/12/14 00:29:37;;;;;;;116.85;41.20;;;;;;;3.87;100.00;100787.94;4952882;28;20508;-49
2020/12/14 00:32:03;;;;;;;117.53;42.90;;;;;;;3.87;100.00;100795.53;4951690;28;20074;-52
2020/12/14 00:34:30;;;;;;;143.55;43.67;;;;;;;3.68;100.00;100788.59;4953325;28;20138;-57
2020/12/14 00:37:06;;;;;;;130.13;42.58;;;;;;;3.76;100.00;100783.97;4951875;28;20066;-55
2020/12/14 00:39:33;;;;;;;124.18;40.97;;;;;;;3.74;100.00;100788.94;4952886;28;20738;-50
2020/12/14 00:42:00;;;;;;;128.35;42.78;;;;;;;4.09;100.00;100793.38;4951433;28;20051;-51
2020/12/14 00:44:26;;;;;;;116.53;41.40;;;;;;;3.94;100.00;100791.69;4959070;28;20043;-56
2020/12/14 00:46:53;;;;;;;109.32;38.80;;;;;;;3.98;100.00;100796.13;4961994;28;20043;-53
2020/12/14 00:49:20;;;;;;;125.20;41.55;;;;;;;4.23;100.00;100793.22;4959282;28;20069;-52
2020/12/14 00:51:46;;;;;;;124.20;41.20;;;;;;;4.07;100.00;100796.63;4961680;28;20121;-55
2020/12/14 00:54:13;;;;;;;112.60;39.03;;;;;;;4.22;100.00;100799.09;4959741;28;20047;-54
2020/12/14 00:56:40;;;;;;;122.65;41.88;;;;;;;4.20;100.00;100799.00;4960826;28;20569;-53
2020/12/14 00:59:07;;;;;;;114.18;39.53;;;;;;;4.17;100.00;100800.53;4959886;28;20179;-52
2020/12/14 01:01:33;;;;;;;109.60;39.65;;;;;;;4.45;100.00;100800.31;4959689;28;20051;-51
2020/12/14 01:04:00;;;;;;;98.85;37.17;;;;;;;4.36;100.00;100803.22;4961111;28;20659;-54
2020/12/14 01:06:26;;;;;;;115.72;39.53;;;;;;;4.38;100.00;100799.09;4959249;28;20051;-51
2020/12/14 01:08:53;;;;;;;110.32;40.15;;;;;;;4.19;100.00;100798.94;4961345;28;20047;-55
2020/12/14 01:11:24;;;;;;;109.95;40.05;;;;;;;4.14;100.00;100805.41;4959206;28;20468;-53
2020/12/14 01:13:51;;;;;;;106.38;39.20;;;;;;;4.29;100.00;100807.09;4961007;28;20065;-51
2020/12/14 01:16:18;;;;;;;150.30;44.95;;;;;;;3.83;100.00;100808.81;4959100;28;20523;-53
2020/12/14 01:18:45;;;;;;;152.50;45.15;;;;;;;3.72;100.00;100804.84;4961600;28;20050;-51
2020/12/14 01:21:12;;;;;;;142.35;44.60;;;;;;;3.80;100.00;100809.53;4960723;28;20105;-57
2020/12/14 01:23:38;;;;;;;148.55;43.45;;;;;;;3.83;100.00;100807.16;4951934;28;20058;-51
2020/12/14 01:26:04;;;;;;;145.18;44.95;;;;;;;3.74;100.00;100804.13;4951676;28;20114;-54
2020/12/14 01:28:31;;;;;;;111.22;41.75;;;;;;;4.09;100.00;100808.56;4952813;28;20058;-53
2020/12/14 01:30:57;;;;;;;133.10;43.83;;;;;;;3.82;100.00;100814.69;4951345;28;20106;-51
2020/12/14 01:33:24;;;;;;;166.00;45.55;;;;;;;3.95;100.00;100813.69;4953874;28;20101;-51
2020/12/14 01:35:50;;;;;;;171.27;45.72;;;;;;;3.73;100.00;100809.13;4955998;28;20149;-52
2020/12/14 01:38:17;;;;;;;157.27;45.80;;;;;;;3.78;100.00;100815.31;4954475;28;20121;-52
2020/12/14 01:40:43;;;;;;;154.05;45.63;;;;;;;3.81;100.00;100816.34;4951385;28;20047;-50
2020/12/14 01:43:10;;;;;;;165.13;45.70;;;;;;;3.76;100.00;100814.34;4952277;28;20852;-55
2020/12/14 01:45:37;;;;;;;152.18;45.75;;;;;;;3.78;100.00;100817.84;4951003;28;20054;-50
2020/12/14 01:48:06;;;;;;;144.98;44.80;;;;;;;3.71;100.00;100816.63;4951249;28;20528;-49
2020/12/14 01:50:34;;;;;;;168.02;47.63;;;;;;;3.70;100.00;100816.56;4952515;28;20114;-57
2020/12/14 01:53:01;;;;;;;177.38;48.17;;;;;;;3.64;100.00;100814.53;4950643;28;20051;-52
2020/12/14 01:55:49;;;;;;;182.68;49.78;;;;;;;3.65;100.00;100810.34;4952619;28;20055;-55
2020/12/14 01:58:16;;;;;;;190.98;50.47;;;;;;;3.64;100.00;100816.22;4953059;28;20094;-53
2020/12/14 02:00:43;;;;;;;221.27;51.53;;;;;;;3.65;100.00;100810.34;4950968;28;20051;-52
2020/12/14 02:03:09;;;;;;;174.10;47.42;;;;;;;3.69;100.00;100815.66;4951624;28;20058;-54
2020/12/14 02:05:36;;;;;;;155.77;46.00;;;;;;;3.77;100.00;100811.03;4951588;28;20047;-56
2020/12/14 02:08:05;;;;;;;157.68;46.08;;;;;;;3.91;100.00;100802.53;4950605;28;20051;-53
2020/12/14 02:10:32;;;;;;;129.20;42.72;;;;;;;4.16;100.00;100807.25;4953050;28;20051;-52
2020/12/14 02:12:59;;;;;;;130.38;41.10;;;;;;;4.09;100.00;100807.72;4954058;28;20089;-55
2020/12/14 02:15:25;;;;;;;193.35;48.08;;;;;;;3.85;100.00;100806.41;4956518;28;20055;-49
2020/12/14 02:17:51;;;;;;;174.70;46.08;;;;;;;3.80;100.00;100801.09;4954193;28;20055;-51
2020/12/14 02:20:18;;;;;;;182.60;48.17;;;;;;;3.70;100.00;100796.31;4956110;28;20051;-54
2020/12/14 02:22:44;;;;;;;189.13;48.47;;;;;;;3.80;100.00;100801.09;4954168;28;20051;-52
2020/12/14 02:25:11;;;;;;;180.80;47.90;;;;;;;3.77;100.00;100795.84;4955299;28;20125;-53
2020/12/14 02:27:37;;;;;;;175.15;46.85;;;;;;;3.86;100.00;100795.47;4963295;28;20062;-50
2020/12/14 02:30:06;;;;;;;143.50;44.00;;;;;;;4.19;100.00;100791.31;4963766;28;20136;-53
2020/12/14 02:32:33;;;;;;;160.65;45.03;;;;;;;4.07;100.00;100797.50;4962122;28;20051;-53
2020/12/14 02:35:00;;;;;;;129.60;41.20;;;;;;;4.60;100.00;100789.28;4963852;28;20413;-55
2020/12/14 02:37:29;;;;;;;114.13;41.45;;;;;;;4.67;100.00;100782.88;4962093;28;20090;-57
2020/12/14 02:39:55;;;;;;;110.97;40.65;;;;;;;4.29;100.00;100785.94;4960256;28;20055;-54
2020/12/14 02:42:24;;;;;;;122.13;41.17;;;;;;;4.22;100.00;100777.16;4957152;28;20571;-50
2020/12/14 02:44:51;;;;;;;125.10;40.17;;;;;;;4.18;100.00;100769.31;4955756;28;20075;-58
2020/12/14 02:47:19;;;;;;;147.82;43.35;;;;;;;4.12;100.00;100756.34;4987940;23;20031;-51
2020/12/14 02:49:46;;;;;;;122.70;40.17;;;;;;;4.18;100.00;100759.19;4984201;28;20518;-44
2020/12/14 02:52:14;;;;;;;184.05;45.38;;;;;;;3.89;100.00;100755.97;4985832;28;20116;-45
2020/12/14 02:54:42;;;;;;;156.02;45.03;;;;;;;3.90;100.00;100756.84;4986250;28;20084;-45
2020/12/14 02:57:09;;;;;;;216.80;48.53;;;;;;;4.02;100.00;100767.63;4985963;28;20468;-48
2020/12/14 02:59:36;;;;;;;132.05;41.38;;;;;;;3.91;100.00;100772.13;4982256;28;20120;-48
2020/12/14 03:02:03;;;;;;;131.30;41.45;;;;;;;4.42;100.00;100775.66;4986018;28;20050;-49
2020/12/14 03:04:30;;;;;;;145.48;38.47;;;;;;;4.34;100.00;100770.19;4986139;28;20042;-49
2020/12/14 03:06:57;;;;;;;224.05;42.40;;;;;;;4.25;100.00;100784.03;4986626;28;20042;-52
2020/12/14 03:09:23;;;;;;;117.28;37.67;;;;;;;4.54;100.00;100783.91;4986214;28;20503;-46
2020/12/14 03:11:50;;;;;;;174.70;37.80;;;;;;;4.55;100.00;100782.22;4986016;28;20049;-50
2020/12/14 03:14:18;;;;;;;118.15;33.90;;;;;;;4.33;100.00;100781.09;4987384;28;20085;-52
2020/12/14 03:16:51;;;;;;;99.30;31.40;;;;;;;4.79;100.00;100788.53;4974879;28;20100;-53
2020/12/14 03:19:18;;;;;;;229.40;37.38;;;;;;;4.46;100.00;100786.81;4980478;28;20310;-50
2020/12/14 03:21:45;;;;;;;117.53;33.97;;;;;;;4.54;100.00;100799.13;4974501;28;20057;-52
2020/12/14 03:24:12;;;;;;;136.80;34.83;;;;;;;4.28;100.00;100795.22;4984930;28;20403;-53
2020/12/14 03:26:39;;;;;;;104.85;32.85;;;;;;;4.63;100.00;100792.78;4984640;28;20140;-52
2020/12/14 03:29:06;;;;;;;88.43;31.83;;;;;;;4.61;100.00;100792.69;4986702;28;20082;-49
2020/12/14 03:31:32;;;;;;;292.05;42.67;;;;;;;4.28;100.00;100802.81;4984089;28;20054;-46
2020/12/14 03:34:00;;;;;;;174.68;35.72;;;;;;;4.24;100.00;100802.56;4983891;28;20065;-51
2020/12/14 03:36:26;;;;;;;105.68;31.88;;;;;;;4.40;100.00;100804.28;4983497;28;20097;-49
2020/12/14 03:38:54;;;;;;;121.40;34.53;;;;;;;4.20;100.00;100791.41;4984268;28;20061;-52
2020/12/14 03:41:21;;;;;;;120.03;35.47;;;;;;;4.33;100.00;100792.91;4984242;28;20132;-44
2020/12/14 03:43:49;;;;;;;102.15;31.88;;;;;;;4.48;100.00;100788.63;4984274;28;20546;-45
2020/12/14 03:46:16;;;;;;;309.83;43.42;;;;;;;4.27;100.00;100792.59;4985010;28;20504;-47
2020/12/14 03:48:43;;;;;;;124.50;32.72;;;;;;;4.37;100.00;100788.88;4997828;28;20046;-46
2020/12/14 03:51:11;;;;;;;158.43;35.72;;;;;;;4.20;100.00;100783.78;5005146;28;20128;-53
2020/12/14 03:53:37;;;;;;;120.35;31.95;;;;;;;4.15;100.00;100774.22;5005030;28;20156;-49
2020/12/14 03:56:04;;;;;;;99.68;30.73;;;;;;;4.54;100.00;100773.75;4999212;28;20026;-50
2020/12/14 03:58:30;;;;;;;78.60;30.45;;;;;;;4.70;100.00;100774.53;5008634;28;20462;-48
2020/12/14 04:00:57;;;;;;;158.07;34.42;;;;;;;4.32;100.00;100779.38;5007832;28;20045;-47
2020/12/14 04:03:25;;;;;;;130.93;30.70;;;;;;;4.39;100.00;100787.28;5008322;28;20053;-48
2020/12/14 04:05:52;;;;;;;156.07;35.60;;;;;;;4.33;100.00;100787.84;5009482;28;20478;-54
2020/12/14 04:08:19;;;;;;;161.80;33.90;;;;;;;4.19;100.00;100787.13;4997150;28;20062;-47
2020/12/14 04:10:46;;;;;;;67.93;28.33;;;;;;;4.37;100.00;100786.34;5005360;28;20046;-51
2020/12/14 04:13:12;;;;;;;70.53;28.85;;;;;;;4.12;100.00;100785.06;5004305;28;20056;-51
2020/12/14 04:15:39;;;;;;;92.22;30.98;;;;;;;4.47;100.00;100775.88;5004616;28;20769;-52
2020/12/14 04:18:05;;;;;;;90.35;28.27;;;;;;;4.56;100.00;100782.28;5004590;28;20100;-50
2020/12/14 04:20:32;;;;;;;78.75;29.38;;;;;;;4.56;100.00;100778.88;5004822;28;20127;-45
2020/12/14 04:22:58;;;;;;;73.88;27.63;;;;;;;4.57;100.00;100770.47;5005056;28;20108;-47
2020/12/14 04:25:25;;;;;;;70.65;29.38;;;;;;;4.33;100.00;100776.03;5004386;28;20103;-49
2020/12/14 04:27:51;;;;;;;141.02;31.67;;;;;;;4.06;100.00;100778.00;5004522;28;20077;-47
2020/12/14 04:30:18;;;;;;;95.55;28.73;;;;;;;4.04;100.00;100781.25;5001221;28;20073;-55
2020/12/14 04:32:46;;;;;;;87.90;30.98;;;;;;;3.69;100.00;100782.75;4998962;28;20601;-53
2020/12/14 04:35:12;;;;;;;112.10;29.42;;;;;;;3.84;100.00;100782.72;5004740;28;20100;-48
2020/12/14 04:37:39;;;;;;;95.05;33.30;;;;;;;3.75;100.00;100780.56;5004914;28;20050;-50
2020/12/14 04:40:05;;;;;;;161.63;35.47;;;;;;;3.63;100.00;100779.88;5000614;28;20069;-47
2020/12/14 04:42:33;;;;;;;112.78;33.53;;;;;;;3.75;100.00;100783.09;5004749;28;20062;-51
2020/12/14 04:45:01;;;;;;;66.03;29.17;;;;;;;3.91;100.00;100784.78;5005142;28;20507;-56
2020/12/14 04:47:28;;;;;;;94.50;29.30;;;;;;;4.01;100.00;100781.09;5002113;28;20054;-50
2020/12/14 04:49:56;;;;;;;100.45;30.55;;;;;;;3.71;100.00;100786.25;5004852;28;20076;-54
2020/12/14 04:52:24;;;;;;;73.38;26.80;;;;;;;3.87;100.00;100775.28;5004297;28;20092;-54
2020/12/14 04:54:51;;;;;;;80.30;28.70;;;;;;;3.68;100.00;100785.19;5004559;28;20057;-54
2020/12/14 04:57:22;;;;;;;57.03;26.15;;;;;;;3.97;100.00;100784.25;5004929;28;20058;-55
2020/12/14 04:59:52;;;;;;;119.68;30.85;;;;;;;3.86;100.00;100792.94;4995442;28;20128;-51
2020/12/14 05:02:18;;;;;;;60.55;24.23;;;;;;;4.15;100.00;100795.34;5004818;28;20054;-54
2020/12/14 05:04:45;;;;;;;78.65;26.13;;;;;;;3.84;100.00;100792.88;4999208;28;20038;-52
2020/12/14 05:07:12;;;;;;;62.25;26.23;;;;;;;4.01;100.00;100799.69;5004042;28;20053;-50
2020/12/14 05:09:41;;;;;;;51.90;24.55;;;;;;;4.17;100.00;100800.53;5004221;28;20491;-49
2020/12/14 05:12:18;;;;;;;88.38;25.85;;;;;;;4.12;100.00;100805.34;5004216;28;20054;-52
2020/12/14 05:14:45;;;;;;;70.50;24.90;;;;;;;3.74;100.00;100803.25;4998937;28;20072;-52
2020/12/14 05:17:24;;;;;;;57.15;24.80;;;;;;;3.74;100.00;100800.72;5003852;28;20085;-49
2020/12/14 05:19:52;;;;;;;59.80;24.20;;;;;;;3.83;100.00;100791.09;4999452;28;20037;-51
2020/12/14 05:22:18;;;;;;;64.93;23.95;;;;;;;3.77;100.00;100791.63;5004346;28;20058;-51
2020/12/14 05:24:50;;;;;;;48.55;23.13;;;;;;;3.83;100.00;100788.56;4998863;28;20407;-49
2020/12/14 05:27:46;;;;;;;45.42;23.70;;;;;;;3.69;100.00;100787.81;5004141;28;20061;-50
2020/12/14 05:30:14;;;;;;;62.58;24.50;;;;;;;3.70;100.00;100789.59;4991512;28;20892;-54
2020/12/14 05:32:41;;;;;;;74.05;27.00;;;;;;;3.55;100.00;100789.59;5003392;28;20482;-54
2020/12/14 05:35:11;;;;;;;47.78;24.60;;;;;;;3.82;100.00;100782.63;5000828;28;20046;-55
2020/12/14 05:37:38;;;;;;;51.30;26.00;;;;;;;3.79;100.00;100782.47;4998371;28;20748;-52
2020/12/14 05:40:11;;;;;;;48.90;24.83;;;;;;;3.83;100.00;100791.09;4998196;28;20641;-54
2020/12/14 05:42:42;;;;;;;47.15;23.98;;;;;;;3.99;100.00;100793.69;5002624;28;20983;-50
2020/12/14 05:45:12;;;;;;;53.00;24.58;;;;;;;3.83;100.00;100791.09;5005511;28;20068;-50
2020/12/14 05:47:41;;;;;;;48.63;24.60;;;;;;;3.83;100.00;100796.16;5006716;28;20501;-49
2020/12/14 05:50:10;;;;;;;52.90;24.67;;;;;;;3.62;100.00;100797.53;5006960;28;20053;-48
2020/12/14 05:52:47;;;;;;;49.65;23.63;;;;;;;3.89;100.00;100793.13;5007669;28;20049;-54
2020/12/14 05:55:18;;;;;;;58.63;24.23;;;;;;;3.63;100.00;100800.16;4986406;28;20504;-52
2020/12/14 05:57:49;;;;;;;73.82;25.52;;;;;;;3.53;100.00;100793.72;5002475;28;20132;-54
2020/12/14 06:00:18;;;;;;;59.20;24.92;;;;;;;3.38;100.00;100792.88;5007890;28;20041;-51
2020/12/14 06:02:45;;;;;;;56.13;26.20;;;;;;;3.20;100.00;100790.16;5007807;28;20532;-52
2020/12/14 06:05:12;;;;;;;68.75;26.23;;;;;;;3.40;100.00;100783.69;5007722;28;20590;-52
2020/12/14 06:07:38;;;;;;;56.92;25.83;;;;;;;3.63;100.00;100790.03;5007604;28;20045;-54
2020/12/14 06:10:06;;;;;;;70.70;27.45;;;;;;;3.73;100.00;100788.84;5007855;28;20144;-53
2020/12/14 06:12:34;;;;;;;60.17;25.08;;;;;;;3.47;100.00;100779.84;5007945;28;20054;-55
2020/12/14 06:15:06;;;;;;;74.72;25.48;;;;;;;3.19;100.00;100787.53;5007983;28;20116;-55
2020/12/14 06:17:34;;;;;;;51.17;24.45;;;;;;;3.48;100.00;100781.59;5006127;28;20050;-55
2020/12/14 06:20:07;;;;;;;80.70;22.95;;;;;;;3.63;100.00;100784.94;5007663;28;20042;-52
2020/12/14 06:22:35;;;;;;;57.42;22.30;;;;;;;3.42;100.00;100781.22;5006425;28;20764;-50
2020/12/14 06:25:05;;;;;;;63.40;23.50;;;;;;;3.17;100.00;100784.06;5007503;28;20057;-48
2020/12/14 06:27:32;;;;;;;101.28;27.30;;;;;;;3.02;100.00;100789.13;5007458;28;20108;-50
2020/12/14 06:29:58;;;;;;;147.82;30.45;;;;;;;2.84;100.00;100783.88;5007866;28;20446;-52
2020/12/14 06:32:37;;;;;;;104.43;28.05;;;;;;;2.85;100.00;100774.63;5007382;28;20466;-48
2020/12/14 06:35:17;;;;;;;90.88;27.42;;;;;;;2.80;100.00;100781.94;5007669;28;20456;-47
2020/12/14 06:37:54;;;;;;;60.13;24.55;;;;;;;2.88;100.00;100774.81;5007614;28;20052;-45
2020/12/14 06:40:21;;;;;;;145.90;30.35;;;;;;;2.71;100.00;100769.63;5007110;28;20057;-56
2020/12/14 06:42:48;;;;;;;76.65;25.63;;;;;;;2.83;100.00;100778.72;5007495;28;20052;-53
2020/12/14 06:45:18;;;;;;;87.97;26.65;;;;;;;2.83;100.00;100788.84;5006928;28;20054;-43
2020/12/14 06:47:47;;;;;;;74.53;25.60;;;;;;;3.13;100.00;100789.72;5001307;28;20116;-49
2020/12/14 06:50:31;;;;;;;48.75;23.08;;;;;;;3.30;100.00;100787.38;5006967;28;20104;-47
2020/12/14 06:53:00;;;;;;;84.93;25.17;;;;;;;3.05;100.00;100792.69;5003320;28;20056;-47
2020/12/14 06:55:44;;;;;;;51.72;22.80;;;;;;;3.38;100.00;100790.34;5006667;28;20504;-52
2020/12/14 06:58:32;;;;;;;86.20;24.60;;;;;;;3.03;100.00;100789.19;5006790;28;20303;-54
2020/12/14 07:00:58;;;;;;;46.38;22.95;;;;;;;3.14;100.00;100778.81;5003089;28;20082;-48
2020/12/14 07:03:29;;;;;;;59.67;26.70;;;;;;;3.16;100.00;100779.78;5006876;28;20057;-47
2020/12/14 07:06:01;;;;;;;84.22;26.60;;;;;;;3.03;100.00;100774.03;5006768;28;20512;-43
2020/12/14 07:08:31;;;;;;;56.30;24.88;;;;;;;3.00;100.00;100772.97;5004351;28;20140;-44
2020/12/14 07:11:18;;;;;;;46.40;24.38;;;;;;;2.83;100.00;100768.63;5006490;28;20053;-42
2020/12/14 07:13:45;;;;;;;61.67;26.30;;;;;;;2.93;100.00;100781.88;5006719;28;20124;-48
2020/12/14 07:16:13;;;;;;;47.60;25.55;;;;;;;2.88;100.00;100780.75;5006224;28;20050;-46
2020/12/14 07:18:42;;;;;;;41.20;22.35;;;;;;;3.21;100.00;100789.38;5006843;28;20525;-41
2020/12/14 07:21:17;;;;;;;44.58;23.63;;;;;;;3.19;100.00;100787.53;5007160;28;20511;-42
2020/12/14 07:23:45;;;;;;;50.75;25.83;;;;;;;2.98;100.00;100793.13;5006556;28;20049;-45
2020/12/14 07:26:14;;;;;;;47.28;24.52;;;;;;;3.15;100.00;100785.63;5006495;28;20046;-44
2020/12/14 07:28:48;;;;;;;48.95;24.15;;;;;;;3.21;100.00;100786.84;5006213;28;20564;-43
2020/12/14 07:31:18;;;;;;;48.75;25.38;;;;;;;3.14;100.00;100784.75;5006528;28;20060;-52
2020/12/14 07:33:56;;;;;;;44.42;25.35;;;;;;;2.98;100.00;100783.00;5006078;28;20049;-47
2020/12/14 07:36:24;;;;;;;55.35;26.92;;;;;;;2.91;100.00;100788.50;5006461;28;20116;-42
2020/12/14 07:38:54;;;;;;;51.65;26.33;;;;;;;2.94;100.00;100783.59;5006229;28;20058;-42
2020/12/14 07:41:21;;;;;;;54.97;28.10;;;;;;;2.68;100.00;100788.81;5006157;28;20120;-45
2020/12/14 07:43:54;;;;;;;47.92;24.83;;;;;;;3.13;100.00;100800.72;5006298;28;20380;-41
2020/12/14 07:46:35;;;;;;;47.15;26.70;;;;;;;3.12;100.00;100805.69;5005775;28;20072;-41
2020/12/14 07:49:07;;;;;;;46.50;23.95;;;;;;;3.04;100.00;100800.19;5005958;28;20147;-47
2020/12/14 07:51:46;;;;;;;43.08;24.75;;;;;;;3.17;100.00;100799.22;5005681;28;20159;-45
2020/12/14 07:54:15;;;;;;;45.17;24.70;;;;;;;2.86;100.00;100794.06;5006362;28;20041;-44
2020/12/14 07:57:06;;;;;;;43.85;24.60;;;;;;;3.32;100.00;100803.50;5006382;28;20570;-45
2020/12/14 07:59:32;;;;;;;41.63;22.50;;;;;;;3.48;100.00;100814.50;5004259;28;20235;-42
2020/12/14 08:01:59;;;;;;;40.42;24.38;;;;;;;3.53;100.00;100813.09;5005761;28;20046;-45
2020/12/14 08:04:32;;;;;;;44.13;24.00;;;;;;;3.25;100.00;100811.53;5001082;28;20082;-51
2020/12/14 08:07:00;;;;;;;41.53;24.15;;;;;;;3.34;100.00;100808.66;5004631;28;20046;-45
2020/12/14 08:09:30;;;;;;;41.10;24.48;;;;;;;3.30;100.00;100810.13;5004968;28;20643;-48
2020/12/14 08:11:57;;;;;;;44.20;24.52;;;;;;;3.30;100.00;100805.06;5005150;28;20140;-43
2020/12/14 08:14:25;;;;;;;45.47;25.20;;;;;;;3.31;100.00;100805.94;5004857;28;20057;-47
2020/12/14 08:16:53;;;;;;;45.72;25.13;;;;;;;3.18;100.00;100806.91;5004824;28;20132;-46
2020/12/14 08:19:22;;;;;;;41.70;24.48;;;;;;;3.18;100.00;100809.44;5004829;28;20057;-45
2020/12/14 08:22:02;;;;;;;48.38;25.90;;;;;;;3.24;100.00;100812.34;5000303;28;20073;-45
2020/12/14 08:24:29;;;;;;;43.95;24.60;;;;;;;3.60;100.00;100805.03;5003211;28;20468;-43
2020/12/14 08:27:06;;;;;;;43.22;23.58;;;;;;;3.72;100.00;100805.72;5005102;28;20638;-43
2020/12/14 08:29:34;;;;;;;39.80;22.65;;;;;;;3.59;100.00;100805.81;5003335;28;20088;-44
2020/12/14 08:32:01;;;;;;;41.60;23.30;;;;;;;3.41;100.00;100810.72;5005207;28;20045;-43
2020/12/14 08:34:30;;;;;;;42.75;24.38;;;;;;;3.34;100.00;100812.84;5003472;28;20133;-45
2020/12/14 08:36:56;;;;;;;40.58;22.45;;;;;;;3.68;100.00;100808.00;5005226;28;20050;-48
2020/12/14 08:39:23;;;;;;;42.53;23.42;;;;;;;3.58;100.00;100815.09;5004729;28;20057;-45
2020/12/14 08:42:08;;;;;;;42.97;23.80;;;;;;;3.68;100.00;100816.47;5005281;28;20157;-44
2020/12/14 08:44:36;;;;;;;43.55;23.20;;;;;;;3.82;100.00;100812.16;5003870;28;20099;-47
2020/12/14 08:47:19;;;;;;;40.92;23.27;;;;;;;3.68;100.00;100813.94;5005115;28;20050;-48
2020/12/14 08:49:45;;;;;;;42.13;24.08;;;;;;;3.71;100.00;100803.13;4999220;28;20054;-42
2020/12/14 08:52:20;;;;;;;38.25;22.63;;;;;;;4.07;100.00;100807.63;5004604;28;20053;-44
2020/12/14 08:54:57;;;;;;;38.40;21.98;;;;;;;4.26;99.83;100806.06;4999677;28;20049;-42
2020/12/14 08:57:28;;;;;;;38.22;23.00;;;;;;;3.98;100.00;100801.22;5004576;28;20519;-43
2020/12/14 09:00:15;;;;;;;40.92;22.02;;;;;;;4.18;100.00;100803.13;5004882;28;20119;-44
2020/12/14 09:02:41;;;;;;;38.33;21.70;;;;;;;4.35;100.00;100801.50;5004393;28;20450;-46
2020/12/14 09:05:19;;;;;;;32.15;18.83;;;;;;;4.90;96.28;100800.88;5004738;28;20049;-43
2020/12/14 09:07:45;;;;;;;32.47;20.25;;;;;;;4.71;96.97;100801.63;4996831;28;20506;-47
2020/12/14 09:10:15;;;;;;;37.33;20.25;;;;;;;4.79;97.48;100797.81;5003923;28;20421;-44
2020/12/14 09:12:42;;;;;;;33.40;20.02;;;;;;;4.80;95.23;100797.00;5004403;28;20054;-46
2020/12/14 09:15:08;;;;;;;35.08;20.23;;;;;;;4.90;96.19;100796.72;5004600;28;20042;-43
2020/12/14 09:17:36;;;;;;;34.92;20.95;;;;;;;4.78;96.84;100801.16;5004902;28;20057;-42
2020/12/14 09:20:08;;;;;;;34.30;20.67;;;;;;;5.08;95.98;100794.19;5004176;28;20042;-46
2020/12/14 09:22:34;;;;;;;34.03;19.63;;;;;;;5.42;93.85;100791.63;5004858;28;20049;-45
2020/12/14 09:25:00;;;;;;;32.55;19.73;;;;;;;5.37;93.82;100795.63;5004877;28;20042;-41
2020/12/14 09:27:27;;;;;;;36.45;21.05;;;;;;;4.99;95.33;100794.63;5004577;28;20470;-45
2020/12/14 09:29:54;;;;;;;35.38;21.35;;;;;;;5.18;95.78;100787.91;5004561;28;20503;-44
2020/12/14 09:32:21;;;;;;;34.42;20.10;;;;;;;5.15;95.06;100786.09;5004682;28;20049;-47
2020/12/14 09:34:47;;;;;;;35.35;20.83;;;;;;;5.29;94.74;100785.09;5004489;28;20120;-45
2020/12/14 09:37:14;;;;;;;34.83;19.38;;;;;;;5.24;95.65;100788.22;5004351;28;20049;-46
2020/12/14 09:39:41;;;;;;;34.10;19.83;;;;;;;5.22;94.04;100788.16;5004341;28;20104;-43
2020/12/14 09:42:07;;;;;;;30.13;19.13;;;;;;;5.31;94.67;100787.69;5003939;28;20471;-44
2020/12/14 09:44:34;;;;;;;36.45;19.45;;;;;;;5.37;95.20;100795.63;5004446;28;20304;-45
2020/12/14 09:47:01;;;;;;;31.80;18.38;;;;;;;5.20;94.22;100779.56;5004305;28;20104;-46
2020/12/14 09:49:28;;;;;;;36.88;20.48;;;;;;;5.02;96.20;100778.66;5001902;28;20064;-45
2020/12/14 09:51:54;;;;;;;37.42;20.95;;;;;;;5.41;94.62;100776.31;5004260;28;20725;-47
2020/12/14 09:54:20;;;;;;;31.85;18.52;;;;;;;5.54;93.42;100763.38;5004618;28;20046;-48
2020/12/14 09:56:47;;;;;;;36.22;20.40;;;;;;;5.41;94.11;100766.16;5004148;28;20108;-43
2020/12/14 09:59:14;;;;;;;34.78;18.35;;;;;;;5.59;93.50;100767.91;5004390;28;20046;-45
2020/12/14 10:01:40;;;;;;;33.05;17.85;;;;;;;5.51;92.75;100770.88;5004150;28;20057;-43
2020/12/14 10:04:07;;;;;;;30.02;18.38;;;;;;;5.36;94.58;100776.97;5004307;28;20050;-47
2020/12/14 10:06:33;;;;;;;32.80;18.17;;;;;;;5.53;92.74;100776.88;5004051;28;20054;-45
2020/12/14 10:09:00;;;;;;;33.78;18.27;;;;;;;5.27;93.80;100774.00;5000813;28;20459;-47
2020/12/14 10:11:28;;;;;;;35.20;19.63;;;;;;;5.56;94.23;100766.88;5000824;28;20064;-45
2020/12/14 10:13:55;;;;;;;33.95;19.33;;;;;;;5.77;93.24;100769.53;5004275;28;20042;-46
2020/12/14 10:16:22;;;;;;;34.92;19.20;;;;;;;5.66;92.86;100769.06;5004703;28;20398;-46
2020/12/14 10:18:49;;;;;;;31.85;17.60;;;;;;;5.96;91.14;100768.75;5004424;28;20117;-48
2020/12/14 10:21:16;;;;;;;31.23;18.48;;;;;;;5.89;92.36;100767.56;5003881;28;20528;-51
2020/12/14 10:23:43;;;;;;;30.65;19.10;;;;;;;6.11;90.89;100774.53;5004016;28;20594;-47
2020/12/14 10:26:11;;;;;;;34.35;18.65;;;;;;;6.08;92.06;100764.22;5003882;28;20459;-42
2020/12/14 10:28:38;;;;;;;28.90;17.73;;;;;;;5.90;92.71;100768.44;5004195;28;20084;-44
2020/12/14 10:31:05;;;;;;;32.92;18.33;;;;;;;6.10;91.76;100770.22;5004265;28;20046;-42
2020/12/14 10:33:32;;;;;;;33.25;17.48;;;;;;;6.27;91.46;100765.91;5007365;28;20050;-43
2020/12/14 10:36:10;;;;;;;34.38;19.02;;;;;;;6.41;90.38;100771.59;5007577;28;20046;-48
2020/12/14 10:38:38;;;;;;;31.20;18.00;;;;;;;6.51;89.77;100763.56;5006611;28;20077;-46
2020/12/14 10:41:05;;;;;;;32.63;16.83;;;;;;;6.47;89.48;100766.75;5007300;28;20050;-47
2020/12/14 10:43:32;;;;;;;30.70;18.70;;;;;;;6.75;89.06;100763.72;5007240;28;20054;-47
2020/12/14 10:45:59;;;;;;;30.63;17.35;;;;;;;6.78;88.31;100763.88;5007275;28;20046;-48
2020/12/14 10:48:26;;;;;;;32.40;18.90;;;;;;;6.63;88.56;100771.72;5007069;28;20482;-44
2020/12/14 10:50:54;;;;;;;33.53;17.38;;;;;;;6.36;89.07;100769.72;5007202;28;20128;-44
2020/12/14 10:53:21;;;;;;;29.25;17.55;;;;;;;6.68;88.32;100764.28;5007386;28;20467;-46
2020/12/14 10:55:47;;;;;;;27.13;16.58;;;;;;;6.76;89.08;100753.63;5007307;28;20045;-46
2020/12/14 10:58:14;;;;;;;29.52;16.98;;;;;;;6.90;88.06;100759.28;5007210;28;20045;-43
2020/12/14 11:00:41;;;;;;;27.08;16.23;;;;;;;6.94;86.63;100760.28;5007309;28;20490;-45
2020/12/14 11:03:07;;;;;;;30.02;16.58;;;;;;;7.31;86.24;100750.78;5008137;28;20058;-44
2020/12/14 11:05:34;;;;;;;28.38;17.40;;;;;;;7.13;86.92;100757.69;5007125;28;20108;-48
2020/12/14 11:08:00;;;;;;;26.90;16.17;;;;;;;7.27;85.31;100751.47;5006993;28;20046;-45
2020/12/14 11:10:27;;;;;;;28.15;16.67;;;;;;;7.42;84.78;100753.75;5007780;28;20597;-44
2020/12/14 11:12:54;;;;;;;28.52;16.98;;;;;;;7.45;85.66;100751.34;5006035;28;20129;-43